sensor_id;sensor_type;location;lat;lon;timestamp;temperature;humidity
46488;DHT22;32202;48.780;9.204;2022-11-20T00:00:28;6.50;99.90
46488;DHT22;32202;48.780;9.204;2022-11-20T00:02:54;6.40;99.90
46488;DHT22;32202;48.780;9.204;2022-11-20T00:05:19;6.40;99.90
46488;DHT22;32202;48.780;9.204;2022-11-20T00:07:46;6.40;99.90
46488;DHT22;32202;48.780;9.204;2022-11-20T00:10:11;6.40;99.90
46488;DHT22;32202;48.780;9.204;2022-11-20T00:12:37;6.40;99.90
46488;DHT22;32202;48.780;9.204;2022-11-20T00:15:03;6.40;99.90
46488;DHT22;32202;48.780;9.204;2022-11-20T00:17:29;6.40;99.90
46488;DHT22;32202;48.780;9.204;2022-11-20T00:19:55;6.40;99.90
46488;DHT22;32202;48.780;9.204;2022-11-20T00:22:20;6.40;99.90
46488;DHT22;32202;48.780;9.204;2022-11-20T00:24:49;6.40;99.90
46488;DHT22;32202;48.780;9.204;2022-11-20T00:27:14;6.40;99.90
46488;DHT22;32202;48.780;9.204;2022-11-20T00:29:40;6.40;99.90
46488;DHT22;32202;48.780;9.204;2022-11-20T00:32:05;6.50;99.90
46488;DHT22;32202;48.780;9.204;2022-11-20T00:34:31;6.50;99.90
46488;DHT22;32202;48.780;9.204;2022-11-20T00:36:56;6.50;99.90
46488;DHT22;32202;48.780;9.204;2022-11-20T00:39:22;6.50;99.90
46488;DHT22;32202;48.780;9.204;2022-11-20T00:41:47;6.60;99.90
46488;DHT22;32202;48.780;9.204;2022-11-20T00:44:13;6.60;99.90
46488;DHT22;32202;48.780;9.204;2022-11-20T00:46:38;6.70;99.90
46488;DHT22;32202;48.780;9.204;2022-11-20T00:49:04;6.70;99.90
46488;DHT22;32202;48.780;9.204;2022-11-20T00:51:30;6.70;99.90
46488;DHT22;32202;48.780;9.204;2022-11-20T00:53:57;6.70;99.90
46488;DHT22;32202;48.780;9.204;2022-11-20T00:56:22;6.80;99.90
46488;DHT22;32202;48.780;9.204;2022-11-20T00:58:49;6.70;99.90
46488;DHT22;32202;48.780;9.204;2022-11-20T01:01:17;6.70;99.90
46488;DHT22;32202;48.780;9.204;2022-11-20T01:03:44;6.80;99.90
46488;DHT22;32202;48.780;9.204;2022-11-20T01:06:25;6.80;99.90
46488;DHT22;32202;48.780;9.204;2022-11-20T01:08:53;6.90;99.90
46488;DHT22;32202;48.780;9.204;2022-11-20T01:11:36;6.90;99.90
46488;DHT22;32202;48.780;9.204;2022-11-20T01:14:04;7.00;99.90
46488;DHT22;32202;48.780;9.204;2022-11-20T01:16:35;7.00;99.90
46488;DHT22;32202;48.780;9.204;2022-11-20T01:19:04;7.00;99.90
46488;DHT22;32202;48.780;9.204;2022-11-20T01:21:33;7.00;99.90
46488;DHT22;32202;48.780;9.204;2022-11-20T01:23:59;7.10;99.90
46488;DHT22;32202;48.780;9.204;2022-11-20T01:26:27;7.10;99.90
46488;DHT22;32202;48.780;9.204;2022-11-20T01:28:54;7.20;99.90
46488;DHT22;32202;48.780;9.204;2022-11-20T01:31:29;7.10;99.90
46488;DHT22;32202;48.780;9.204;2022-11-20T01:33:57;7.20;99.90
46488;DHT22;32202;48.780;9.204;2022-11-20T01:36:25;7.30;99.90
46488;DHT22;32202;48.780;9.204;2022-11-20T01:38:52;7.20;99.90
46488;DHT22;32202;48.780;9.204;2022-11-20T01:41:19;7.20;99.90
46488;DHT22;32202;48.780;9.204;2022-11-20T01:44:04;7.20;99.90
46488;DHT22;32202;48.780;9.204;2022-11-20T01:46:32;7.10;99.90
46488;DHT22;32202;48.780;9.204;2022-11-20T01:49:10;7.10;99.90
46488;DHT22;32202;48.780;9.204;2022-11-20T01:51:45;7.10;99.90
46488;DHT22;32202;48.780;9.204;2022-11-20T01:54:21;7.10;99.90
46488;DHT22;32202;48.780;9.204;2022-11-20T01:56:48;6.90;99.90
46488;DHT22;32202;48.780;9.204;2022-11-20T01:59:18;6.90;99.90
46488;DHT22;32202;48.780;9.204;2022-11-20T02:01:44;6.70;99.90
46488;DHT22;32202;48.780;9.204;2022-11-20T02:04:10;6.70;99.90
46488;DHT22;32202;48.780;9.204;2022-11-20T02:06:40;6.60;99.90
46488;DHT22;32202;48.780;9.204;2022-11-20T02:09:06;6.60;99.90
46488;DHT22;32202;48.780;9.204;2022-11-20T02:11:32;6.60;99.90
46488;DHT22;32202;48.780;9.204;2022-11-20T02:13:58;6.50;99.90
46488;DHT22;32202;48.780;9.204;2022-11-20T02:16:30;6.50;99.90
46488;DHT22;32202;48.780;9.204;2022-11-20T02:18:59;6.50;99.90
46488;DHT22;32202;48.780;9.204;2022-11-20T02:24:15;6.50;99.90
46488;DHT22;32202;48.780;9.204;2022-11-20T02:29:14;6.60;99.90
46488;DHT22;32202;48.780;9.204;2022-11-20T02:31:42;6.60;99.90
46488;DHT22;32202;48.780;9.204;2022-11-20T02:34:08;6.70;99.90
46488;DHT22;32202;48.780;9.204;2022-11-20T02:36:35;6.70;99.90
46488;DHT22;32202;48.780;9.204;2022-11-20T02:39:03;6.70;99.90
46488;DHT22;32202;48.780;9.204;2022-11-20T02:41:36;6.60;99.90
46488;DHT22;32202;48.780;9.204;2022-11-20T02:44:03;6.60;99.90
46488;DHT22;32202;48.780;9.204;2022-11-20T02:46:29;6.60;99.90
46488;DHT22;32202;48.780;9.204;2022-11-20T02:48:55;6.60;99.90
46488;DHT22;32202;48.780;9.204;2022-11-20T02:51:21;6.60;99.90
46488;DHT22;32202;48.780;9.204;2022-11-20T02:53:46;6.70;99.90
46488;DHT22;32202;48.780;9.204;2022-11-20T02:56:12;6.70;99.90
46488;DHT22;32202;48.780;9.204;2022-11-20T02:58:37;6.70;99.90
46488;DHT22;32202;48.780;9.204;2022-11-20T03:01:03;6.70;99.90
46488;DHT22;32202;48.780;9.204;2022-11-20T03:03:29;6.70;99.90
46488;DHT22;32202;48.780;9.204;2022-11-20T03:05:54;6.70;99.90
46488;DHT22;32202;48.780;9.204;2022-11-20T03:08:20;6.80;99.90
46488;DHT22;32202;48.780;9.204;2022-11-20T03:10:45;6.80;99.90
46488;DHT22;32202;48.780;9.204;2022-11-20T03:13:11;6.80;99.90
46488;DHT22;32202;48.780;9.204;2022-11-20T03:15:37;6.80;99.90
46488;DHT22;32202;48.780;9.204;2022-11-20T03:18:03;6.90;99.90
46488;DHT22;32202;48.780;9.204;2022-11-20T03:20:28;6.90;99.90
46488;DHT22;32202;48.780;9.204;2022-11-20T03:22:54;6.90;99.90
46488;DHT22;32202;48.780;9.204;2022-11-20T03:25:21;6.80;99.90
46488;DHT22;32202;48.780;9.204;2022-11-20T03:27:46;6.80;99.90
46488;DHT22;32202;48.780;9.204;2022-11-20T03:30:12;6.80;99.90
46488;DHT22;32202;48.780;9.204;2022-11-20T03:32:38;6.80;99.90
46488;DHT22;32202;48.780;9.204;2022-11-20T03:35:04;6.80;99.90
46488;DHT22;32202;48.780;9.204;2022-11-20T03:37:29;6.70;99.90
46488;DHT22;32202;48.780;9.204;2022-11-20T03:39:55;6.60;99.90
46488;DHT22;32202;48.780;9.204;2022-11-20T03:42:20;6.50;99.90
46488;DHT22;32202;48.780;9.204;2022-11-20T03:45:05;6.40;99.90
46488;DHT22;32202;48.780;9.204;2022-11-20T03:47:31;6.30;99.90
46488;DHT22;32202;48.780;9.204;2022-11-20T03:49:56;6.30;99.90
46488;DHT22;32202;48.780;9.204;2022-11-20T03:52:22;6.20;99.90
46488;DHT22;32202;48.780;9.204;2022-11-20T03:54:47;6.20;99.90
46488;DHT22;32202;48.780;9.204;2022-11-20T03:57:13;6.10;99.90
46488;DHT22;32202;48.780;9.204;2022-11-20T03:59:38;6.00;99.90
46488;DHT22;32202;48.780;9.204;2022-11-20T04:02:04;5.90;99.90
46488;DHT22;32202;48.780;9.204;2022-11-20T04:04:30;5.90;99.90
46488;DHT22;32202;48.780;9.204;2022-11-20T04:06:55;5.80;99.90
46488;DHT22;32202;48.780;9.204;2022-11-20T04:09:21;5.80;99.90
46488;DHT22;32202;48.780;9.204;2022-11-20T04:11:46;5.70;99.90
46488;DHT22;32202;48.780;9.204;2022-11-20T04:14:14;5.70;99.90
46488;DHT22;32202;48.780;9.204;2022-11-20T04:16:40;5.70;99.90
46488;DHT22;32202;48.780;9.204;2022-11-20T04:19:09;5.60;99.90
46488;DHT22;32202;48.780;9.204;2022-11-20T04:21:35;5.60;99.90
46488;DHT22;32202;48.780;9.204;2022-11-20T04:24:01;5.70;99.90
46488;DHT22;32202;48.780;9.204;2022-11-20T04:26:28;5.70;99.90
46488;DHT22;32202;48.780;9.204;2022-11-20T04:28:54;5.70;99.90
46488;DHT22;32202;48.780;9.204;2022-11-20T04:31:22;5.80;99.90
46488;DHT22;32202;48.780;9.204;2022-11-20T04:33:49;5.70;99.90
46488;DHT22;32202;48.780;9.204;2022-11-20T04:36:15;5.80;99.90
46488;DHT22;32202;48.780;9.204;2022-11-20T04:38:41;5.80;99.90
46488;DHT22;32202;48.780;9.204;2022-11-20T04:41:08;5.80;99.90
46488;DHT22;32202;48.780;9.204;2022-11-20T04:43:36;5.90;99.90
46488;DHT22;32202;48.780;9.204;2022-11-20T04:46:02;6.00;99.90
46488;DHT22;32202;48.780;9.204;2022-11-20T04:48:28;6.10;99.90
46488;DHT22;32202;48.780;9.204;2022-11-20T04:50:54;6.10;99.90
46488;DHT22;32202;48.780;9.204;2022-11-20T04:53:20;6.20;99.90
46488;DHT22;32202;48.780;9.204;2022-11-20T04:56:04;6.20;99.90
46488;DHT22;32202;48.780;9.204;2022-11-20T04:58:30;6.30;99.90
46488;DHT22;32202;48.780;9.204;2022-11-20T05:01:06;6.30;99.90
46488;DHT22;32202;48.780;9.204;2022-11-20T05:03:32;6.30;99.90
46488;DHT22;32202;48.780;9.204;2022-11-20T05:06:02;6.30;99.90
46488;DHT22;32202;48.780;9.204;2022-11-20T05:08:29;6.40;99.90
46488;DHT22;32202;48.780;9.204;2022-11-20T05:11:00;6.40;99.90
46488;DHT22;32202;48.780;9.204;2022-11-20T05:13:26;6.40;99.90
46488;DHT22;32202;48.780;9.204;2022-11-20T05:15:52;6.50;99.90
46488;DHT22;32202;48.780;9.204;2022-11-20T05:18:17;6.50;99.90
46488;DHT22;32202;48.780;9.204;2022-11-20T05:20:43;6.60;99.90
46488;DHT22;32202;48.780;9.204;2022-11-20T05:23:08;6.60;99.90
46488;DHT22;32202;48.780;9.204;2022-11-20T05:25:34;6.70;99.90
46488;DHT22;32202;48.780;9.204;2022-11-20T05:28:00;6.70;99.90
46488;DHT22;32202;48.780;9.204;2022-11-20T05:30:25;6.60;99.90
46488;DHT22;32202;48.780;9.204;2022-11-20T05:32:51;6.70;99.90
46488;DHT22;32202;48.780;9.204;2022-11-20T05:35:16;6.70;99.90
46488;DHT22;32202;48.780;9.204;2022-11-20T05:37:42;6.60;99.90
46488;DHT22;32202;48.780;9.204;2022-11-20T05:40:08;6.60;99.90
46488;DHT22;32202;48.780;9.204;2022-11-20T05:42:34;6.60;99.90
46488;DHT22;32202;48.780;9.204;2022-11-20T05:45:03;6.60;99.90
46488;DHT22;32202;48.780;9.204;2022-11-20T05:47:32;6.70;99.90
46488;DHT22;32202;48.780;9.204;2022-11-20T05:49:58;6.70;99.90
46488;DHT22;32202;48.780;9.204;2022-11-20T05:52:24;6.60;99.90
46488;DHT22;32202;48.780;9.204;2022-11-20T05:54:50;6.60;99.90
46488;DHT22;32202;48.780;9.204;2022-11-20T05:57:16;6.60;99.90
46488;DHT22;32202;48.780;9.204;2022-11-20T05:59:41;6.60;99.90
46488;DHT22;32202;48.780;9.204;2022-11-20T06:02:07;6.70;99.90
46488;DHT22;32202;48.780;9.204;2022-11-20T06:04:33;6.70;99.90
46488;DHT22;32202;48.780;9.204;2022-11-20T06:06:58;6.70;99.90
46488;DHT22;32202;48.780;9.204;2022-11-20T06:09:24;6.80;99.90
46488;DHT22;32202;48.780;9.204;2022-11-20T06:11:49;6.80;99.90
46488;DHT22;32202;48.780;9.204;2022-11-20T06:14:15;6.80;99.90
46488;DHT22;32202;48.780;9.204;2022-11-20T06:16:40;6.80;99.90
46488;DHT22;32202;48.780;9.204;2022-11-20T06:19:06;6.80;99.90
46488;DHT22;32202;48.780;9.204;2022-11-20T06:21:31;6.80;99.90
46488;DHT22;32202;48.780;9.204;2022-11-20T06:23:57;6.80;99.90
46488;DHT22;32202;48.780;9.204;2022-11-20T06:26:25;6.80;99.90
46488;DHT22;32202;48.780;9.204;2022-11-20T06:28:52;6.80;99.90
46488;DHT22;32202;48.780;9.204;2022-11-20T06:31:20;6.80;99.90
46488;DHT22;32202;48.780;9.204;2022-11-20T06:33:46;6.80;99.90
46488;DHT22;32202;48.780;9.204;2022-11-20T06:36:14;6.80;99.90
46488;DHT22;32202;48.780;9.204;2022-11-20T06:38:40;6.70;99.90
46488;DHT22;32202;48.780;9.204;2022-11-20T06:41:07;6.70;99.90
46488;DHT22;32202;48.780;9.204;2022-11-20T06:43:34;6.70;99.90
46488;DHT22;32202;48.780;9.204;2022-11-20T06:45:59;6.70;99.90
46488;DHT22;32202;48.780;9.204;2022-11-20T06:48:26;6.70;99.90
46488;DHT22;32202;48.780;9.204;2022-11-20T06:50:53;6.70;99.90
46488;DHT22;32202;48.780;9.204;2022-11-20T06:53:18;6.70;99.90
46488;DHT22;32202;48.780;9.204;2022-11-20T06:55:45;6.70;99.90
46488;DHT22;32202;48.780;9.204;2022-11-20T06:58:12;6.70;99.90
46488;DHT22;32202;48.780;9.204;2022-11-20T07:00:37;6.80;99.90
46488;DHT22;32202;48.780;9.204;2022-11-20T07:03:09;6.80;99.90
46488;DHT22;32202;48.780;9.204;2022-11-20T07:05:36;6.80;99.90
46488;DHT22;32202;48.780;9.204;2022-11-20T07:08:02;6.80;99.90
46488;DHT22;32202;48.780;9.204;2022-11-20T07:10:28;6.80;99.90
46488;DHT22;32202;48.780;9.204;2022-11-20T07:12:55;6.80;99.90
46488;DHT22;32202;48.780;9.204;2022-11-20T07:15:22;6.80;99.90
46488;DHT22;32202;48.780;9.204;2022-11-20T07:17:48;6.80;99.90
46488;DHT22;32202;48.780;9.204;2022-11-20T07:20:14;6.90;99.90
46488;DHT22;32202;48.780;9.204;2022-11-20T07:22:40;6.90;99.90
46488;DHT22;32202;48.780;9.204;2022-11-20T07:25:07;7.00;99.90
46488;DHT22;32202;48.780;9.204;2022-11-20T07:27:33;7.10;99.90
46488;DHT22;32202;48.780;9.204;2022-11-20T07:29:58;7.10;99.90
46488;DHT22;32202;48.780;9.204;2022-11-20T07:32:24;7.20;99.90
46488;DHT22;32202;48.780;9.204;2022-11-20T07:34:50;7.20;99.90
46488;DHT22;32202;48.780;9.204;2022-11-20T07:37:15;7.20;99.90
46488;DHT22;32202;48.780;9.204;2022-11-20T07:39:41;7.30;99.90
46488;DHT22;32202;48.780;9.204;2022-11-20T07:42:07;7.40;99.90
46488;DHT22;32202;48.780;9.204;2022-11-20T07:44:34;7.50;99.50
46488;DHT22;32202;48.780;9.204;2022-11-20T07:46:59;7.50;99.50
46488;DHT22;32202;48.780;9.204;2022-11-20T07:49:25;7.50;99.90
46488;DHT22;32202;48.780;9.204;2022-11-20T07:51:51;7.60;99.60
46488;DHT22;32202;48.780;9.204;2022-11-20T07:54:21;7.70;99.20
46488;DHT22;32202;48.780;9.204;2022-11-20T07:56:48;7.80;98.90
46488;DHT22;32202;48.780;9.204;2022-11-20T07:59:14;7.90;98.40
46488;DHT22;32202;48.780;9.204;2022-11-20T08:01:41;7.90;98.00
46488;DHT22;32202;48.780;9.204;2022-11-20T08:04:07;8.00;97.80
46488;DHT22;32202;48.780;9.204;2022-11-20T08:06:33;7.90;98.10
46488;DHT22;32202;48.780;9.204;2022-11-20T08:08:58;8.00;97.80
46488;DHT22;32202;48.780;9.204;2022-11-20T08:11:24;8.00;97.70
46488;DHT22;32202;48.780;9.204;2022-11-20T08:14:08;8.00;97.40
46488;DHT22;32202;48.780;9.204;2022-11-20T08:16:40;8.10;97.50
46488;DHT22;32202;48.780;9.204;2022-11-20T08:19:06;8.00;97.40
46488;DHT22;32202;48.780;9.204;2022-11-20T08:21:32;8.00;97.70
46488;DHT22;32202;48.780;9.204;2022-11-20T08:23:58;8.00;98.00
46488;DHT22;32202;48.780;9.204;2022-11-20T08:26:25;8.00;98.20
46488;DHT22;32202;48.780;9.204;2022-11-20T08:28:57;8.00;98.20
46488;DHT22;32202;48.780;9.204;2022-11-20T08:31:27;8.10;97.70
46488;DHT22;32202;48.780;9.204;2022-11-20T08:33:53;8.10;97.60
46488;DHT22;32202;48.780;9.204;2022-11-20T08:36:20;8.10;97.60
46488;DHT22;32202;48.780;9.204;2022-11-20T08:38:49;8.10;97.70
46488;DHT22;32202;48.780;9.204;2022-11-20T08:41:15;8.10;98.10
46488;DHT22;32202;48.780;9.204;2022-11-20T08:43:54;8.20;98.20
46488;DHT22;32202;48.780;9.204;2022-11-20T08:46:20;8.30;97.80
46488;DHT22;32202;48.780;9.204;2022-11-20T08:48:46;8.30;97.60
46488;DHT22;32202;48.780;9.204;2022-11-20T08:51:12;8.40;97.50
46488;DHT22;32202;48.780;9.204;2022-11-20T08:53:39;8.40;97.30
46488;DHT22;32202;48.780;9.204;2022-11-20T08:56:05;8.60;96.90
46488;DHT22;32202;48.780;9.204;2022-11-20T08:58:31;8.90;96.30
46488;DHT22;32202;48.780;9.204;2022-11-20T09:00:56;9.30;94.80
46488;DHT22;32202;48.780;9.204;2022-11-20T09:03:22;9.60;93.20
46488;DHT22;32202;48.780;9.204;2022-11-20T09:05:48;9.60;92.30
46488;DHT22;32202;48.780;9.204;2022-11-20T09:08:13;9.60;92.20
46488;DHT22;32202;48.780;9.204;2022-11-20T09:10:39;9.40;92.80
46488;DHT22;32202;48.780;9.204;2022-11-20T09:13:07;9.30;92.70
46488;DHT22;32202;48.780;9.204;2022-11-20T09:15:33;9.10;93.20
46488;DHT22;32202;48.780;9.204;2022-11-20T09:18:01;8.90;94.20
46488;DHT22;32202;48.780;9.204;2022-11-20T09:20:29;8.90;94.50
46488;DHT22;32202;48.780;9.204;2022-11-20T09:22:55;8.80;94.90
46488;DHT22;32202;48.780;9.204;2022-11-20T09:25:21;8.80;95.30
46488;DHT22;32202;48.780;9.204;2022-11-20T09:27:47;8.80;94.80
46488;DHT22;32202;48.780;9.204;2022-11-20T09:30:15;8.80;95.30
46488;DHT22;32202;48.780;9.204;2022-11-20T09:32:42;8.80;95.00
46488;DHT22;32202;48.780;9.204;2022-11-20T09:35:08;8.90;95.40
46488;DHT22;32202;48.780;9.204;2022-11-20T09:37:33;8.90;95.60
46488;DHT22;32202;48.780;9.204;2022-11-20T09:39:59;9.10;95.50
46488;DHT22;32202;48.780;9.204;2022-11-20T09:42:37;9.10;94.90
46488;DHT22;32202;48.780;9.204;2022-11-20T09:55:56;8.80;95.10
46488;DHT22;32202;48.780;9.204;2022-11-20T09:58:32;8.80;95.30
46488;DHT22;32202;48.780;9.204;2022-11-20T10:01:11;9.00;94.90
46488;DHT22;32202;48.780;9.204;2022-11-20T10:04:01;9.00;94.90
46488;DHT22;32202;48.780;9.204;2022-11-20T10:06:31;9.00;94.20
46488;DHT22;32202;48.780;9.204;2022-11-20T10:09:16;8.90;94.40
46488;DHT22;32202;48.780;9.204;2022-11-20T10:12:09;8.90;95.10
46488;DHT22;32202;48.780;9.204;2022-11-20T10:26:06;8.60;96.20
46488;DHT22;32202;48.780;9.204;2022-11-20T10:31:12;8.60;97.50
46488;DHT22;32202;48.780;9.204;2022-11-20T10:33:43;8.60;98.20
46488;DHT22;32202;48.780;9.204;2022-11-20T10:36:30;8.70;99.20
46488;DHT22;32202;48.780;9.204;2022-11-20T10:39:21;8.70;99.90
46488;DHT22;32202;48.780;9.204;2022-11-20T10:41:51;8.70;99.90
46488;DHT22;32202;48.780;9.204;2022-11-20T10:44:26;8.60;99.90
46488;DHT22;32202;48.780;9.204;2022-11-20T10:47:15;8.60;99.90
46488;DHT22;32202;48.780;9.204;2022-11-20T10:49:43;8.50;99.90
46488;DHT22;32202;48.780;9.204;2022-11-20T11:00:10;8.30;99.90
46488;DHT22;32202;48.780;9.204;2022-11-20T11:02:52;8.30;99.90
46488;DHT22;32202;48.780;9.204;2022-11-20T11:05:31;8.40;99.90
46488;DHT22;32202;48.780;9.204;2022-11-20T11:07:58;8.40;99.90
46488;DHT22;32202;48.780;9.204;2022-11-20T11:13:00;8.60;99.90
46488;DHT22;32202;48.780;9.204;2022-11-20T11:17:54;8.70;99.90
46488;DHT22;32202;48.780;9.204;2022-11-20T11:20:25;8.60;99.90
46488;DHT22;32202;48.780;9.204;2022-11-20T11:22:53;8.60;99.90
46488;DHT22;32202;48.780;9.204;2022-11-20T11:25:34;8.70;99.90
46488;DHT22;32202;48.780;9.204;2022-11-20T11:28:21;8.70;99.90
46488;DHT22;32202;48.780;9.204;2022-11-20T11:30:47;9.00;99.90
46488;DHT22;32202;48.780;9.204;2022-11-20T11:33:26;9.50;99.90
46488;DHT22;32202;48.780;9.204;2022-11-20T11:35:54;11.50;99.90
46488;DHT22;32202;48.780;9.204;2022-11-20T11:38:38;14.20;85.90
46488;DHT22;32202;48.780;9.204;2022-11-20T11:41:07;15.70;74.80
46488;DHT22;32202;48.780;9.204;2022-11-20T11:43:36;18.00;67.10
46488;DHT22;32202;48.780;9.204;2022-11-20T11:54:21;24.90;46.10
46488;DHT22;32202;48.780;9.204;2022-11-20T11:56:49;26.10;44.20
46488;DHT22;32202;48.780;9.204;2022-11-20T12:00:18;26.50;41.90
46488;DHT22;32202;48.780;9.204;2022-11-20T12:05:20;27.60;41.40
46488;DHT22;32202;48.780;9.204;2022-11-20T12:08:01;26.60;40.50
46488;DHT22;32202;48.780;9.204;2022-11-20T12:16:40;21.80;45.90
46488;DHT22;32202;48.780;9.204;2022-11-20T12:19:11;20.10;49.30
46488;DHT22;32202;48.780;9.204;2022-11-20T12:30:17;20.10;49.10
46488;DHT22;32202;48.780;9.204;2022-11-20T12:38:33;25.00;40.80
46488;DHT22;32202;48.780;9.204;2022-11-20T12:47:38;25.10;40.30
46488;DHT22;32202;48.780;9.204;2022-11-20T12:52:56;24.80;37.30
46488;DHT22;32202;48.780;9.204;2022-11-20T13:01:07;24.30;38.80
46488;DHT22;32202;48.780;9.204;2022-11-20T13:03:56;24.40;37.10
46488;DHT22;32202;48.780;9.204;2022-11-20T13:06:24;23.10;37.70
46488;DHT22;32202;48.780;9.204;2022-11-20T13:08:54;23.30;38.80
46488;DHT22;32202;48.780;9.204;2022-11-20T13:11:23;23.00;38.40
46488;DHT22;32202;48.780;9.204;2022-11-20T13:17:11;21.90;39.50
46488;DHT22;32202;48.780;9.204;2022-11-20T13:19:38;20.70;40.80
46488;DHT22;32202;48.780;9.204;2022-11-20T13:22:04;19.40;43.50
46488;DHT22;32202;48.780;9.204;2022-11-20T13:24:31;18.10;45.60
46488;DHT22;32202;48.780;9.204;2022-11-20T13:29:37;16.20;47.70
46488;DHT22;32202;48.780;9.204;2022-11-20T13:32:25;15.80;49.20
46488;DHT22;32202;48.780;9.204;2022-11-20T13:34:56;16.50;48.40
46488;DHT22;32202;48.780;9.204;2022-11-20T13:42:37;18.40;44.80
46488;DHT22;32202;48.780;9.204;2022-11-20T13:45:08;18.60;44.30
46488;DHT22;32202;48.780;9.204;2022-11-20T13:47:35;17.70;45.40
46488;DHT22;32202;48.780;9.204;2022-11-20T13:50:04;16.10;47.60
46488;DHT22;32202;48.780;9.204;2022-11-20T14:00:44;13.00;54.60
46488;DHT22;32202;48.780;9.204;2022-11-20T14:03:20;12.70;56.40
46488;DHT22;32202;48.780;9.204;2022-11-20T14:05:56;12.40;58.00
46488;DHT22;32202;48.780;9.204;2022-11-20T14:08:48;12.20;59.40
46488;DHT22;32202;48.780;9.204;2022-11-20T14:16:25;11.80;62.50
46488;DHT22;32202;48.780;9.204;2022-11-20T14:18:51;11.50;63.40
46488;DHT22;32202;48.780;9.204;2022-11-20T14:21:27;11.20;65.00
46488;DHT22;32202;48.780;9.204;2022-11-20T14:24:05;11.20;67.10
46488;DHT22;32202;48.780;9.204;2022-11-20T14:26:32;11.10;67.00
46488;DHT22;32202;48.780;9.204;2022-11-20T14:28:58;11.00;67.10
46488;DHT22;32202;48.780;9.204;2022-11-20T14:31:25;10.90;69.00
46488;DHT22;32202;48.780;9.204;2022-11-20T14:33:53;10.80;69.00
46488;DHT22;32202;48.780;9.204;2022-11-20T14:36:21;10.70;69.70
46488;DHT22;32202;48.780;9.204;2022-11-20T14:38:47;10.60;70.00
46488;DHT22;32202;48.780;9.204;2022-11-20T14:41:19;10.60;71.20
46488;DHT22;32202;48.780;9.204;2022-11-20T14:43:53;10.60;70.40
46488;DHT22;32202;48.780;9.204;2022-11-20T14:46:19;10.60;71.00
46488;DHT22;32202;48.780;9.204;2022-11-20T14:48:51;10.50;70.70
46488;DHT22;32202;48.780;9.204;2022-11-20T14:51:36;10.50;71.00
46488;DHT22;32202;48.780;9.204;2022-11-20T14:54:18;10.30;70.50
46488;DHT22;32202;48.780;9.204;2022-11-20T14:57:01;10.20;71.80
46488;DHT22;32202;48.780;9.204;2022-11-20T14:59:29;10.00;71.70
46488;DHT22;32202;48.780;9.204;2022-11-20T15:02:04;9.90;72.70
46488;DHT22;32202;48.780;9.204;2022-11-20T15:04:30;9.90;72.40
46488;DHT22;32202;48.780;9.204;2022-11-20T15:07:00;9.80;73.40
46488;DHT22;32202;48.780;9.204;2022-11-20T15:09:25;9.80;74.40
46488;DHT22;32202;48.780;9.204;2022-11-20T15:11:57;9.80;75.20
46488;DHT22;32202;48.780;9.204;2022-11-20T15:14:24;9.80;74.30
46488;DHT22;32202;48.780;9.204;2022-11-20T15:16:51;9.70;75.00
46488;DHT22;32202;48.780;9.204;2022-11-20T15:19:20;9.70;75.80
46488;DHT22;32202;48.780;9.204;2022-11-20T15:21:46;9.50;75.90
46488;DHT22;32202;48.780;9.204;2022-11-20T15:24:11;9.50;77.30
46488;DHT22;32202;48.780;9.204;2022-11-20T15:26:38;9.30;78.10
46488;DHT22;32202;48.780;9.204;2022-11-20T15:29:07;9.20;78.80
46488;DHT22;32202;48.780;9.204;2022-11-20T15:31:33;9.00;80.50
46488;DHT22;32202;48.780;9.204;2022-11-20T15:34:00;8.90;81.60
46488;DHT22;32202;48.780;9.204;2022-11-20T15:36:25;8.90;82.40
46488;DHT22;32202;48.780;9.204;2022-11-20T15:38:51;8.80;82.80
46488;DHT22;32202;48.780;9.204;2022-11-20T15:41:16;8.80;83.60
46488;DHT22;32202;48.780;9.204;2022-11-20T15:43:42;8.70;84.80
46488;DHT22;32202;48.780;9.204;2022-11-20T15:46:23;8.60;85.30
46488;DHT22;32202;48.780;9.204;2022-11-20T15:48:54;8.50;85.70
46488;DHT22;32202;48.780;9.204;2022-11-20T15:51:27;8.40;87.10
46488;DHT22;32202;48.780;9.204;2022-11-20T15:53:54;8.30;88.00
46488;DHT22;32202;48.780;9.204;2022-11-20T15:56:20;8.30;88.50
46488;DHT22;32202;48.780;9.204;2022-11-20T15:58:46;8.20;89.70
46488;DHT22;32202;48.780;9.204;2022-11-20T16:01:13;8.20;90.00
46488;DHT22;32202;48.780;9.204;2022-11-20T16:03:40;8.10;90.20
46488;DHT22;32202;48.780;9.204;2022-11-20T16:06:06;8.10;90.40
46488;DHT22;32202;48.780;9.204;2022-11-20T16:08:31;8.10;91.00
46488;DHT22;32202;48.780;9.204;2022-11-20T16:10:57;8.10;91.00
46488;DHT22;32202;48.780;9.204;2022-11-20T16:13:23;8.10;91.20
46488;DHT22;32202;48.780;9.204;2022-11-20T16:16:11;8.00;91.50
46488;DHT22;32202;48.780;9.204;2022-11-20T16:18:38;8.00;91.80
46488;DHT22;32202;48.780;9.204;2022-11-20T16:21:04;8.00;92.20
46488;DHT22;32202;48.780;9.204;2022-11-20T16:23:31;8.00;93.10
46488;DHT22;32202;48.780;9.204;2022-11-20T16:25:56;8.00;93.30
46488;DHT22;32202;48.780;9.204;2022-11-20T16:28:22;8.00;92.90
46488;DHT22;32202;48.780;9.204;2022-11-20T16:30:48;8.00;93.10
46488;DHT22;32202;48.780;9.204;2022-11-20T16:33:17;8.10;93.40
46488;DHT22;32202;48.780;9.204;2022-11-20T16:35:42;8.10;93.60
46488;DHT22;32202;48.780;9.204;2022-11-20T16:38:08;8.20;93.70
46488;DHT22;32202;48.780;9.204;2022-11-20T16:40:34;8.20;93.70
46488;DHT22;32202;48.780;9.204;2022-11-20T16:43:10;8.30;93.50
46488;DHT22;32202;48.780;9.204;2022-11-20T16:45:43;8.40;93.60
46488;DHT22;32202;48.780;9.204;2022-11-20T16:48:12;8.30;93.40
46488;DHT22;32202;48.780;9.204;2022-11-20T16:50:48;8.40;93.50
46488;DHT22;32202;48.780;9.204;2022-11-20T16:53:14;8.30;93.60
46488;DHT22;32202;48.780;9.204;2022-11-20T16:55:40;8.30;93.50
46488;DHT22;32202;48.780;9.204;2022-11-20T16:58:06;8.30;93.50
46488;DHT22;32202;48.780;9.204;2022-11-20T17:00:35;8.30;93.40
46488;DHT22;32202;48.780;9.204;2022-11-20T17:03:01;8.30;93.60
46488;DHT22;32202;48.780;9.204;2022-11-20T17:05:29;8.30;93.50
46488;DHT22;32202;48.780;9.204;2022-11-20T17:07:55;8.30;93.60
46488;DHT22;32202;48.780;9.204;2022-11-20T17:10:20;8.20;93.40
46488;DHT22;32202;48.780;9.204;2022-11-20T17:12:46;8.30;93.50
46488;DHT22;32202;48.780;9.204;2022-11-20T17:15:11;8.30;93.60
46488;DHT22;32202;48.780;9.204;2022-11-20T17:17:37;8.30;93.70
46488;DHT22;32202;48.780;9.204;2022-11-20T17:20:03;8.20;93.70
46488;DHT22;32202;48.780;9.204;2022-11-20T17:22:28;8.20;93.40
46488;DHT22;32202;48.780;9.204;2022-11-20T17:24:55;8.10;93.40
46488;DHT22;32202;48.780;9.204;2022-11-20T17:27:21;8.10;93.50
46488;DHT22;32202;48.780;9.204;2022-11-20T17:29:46;8.10;93.70
46488;DHT22;32202;48.780;9.204;2022-11-20T17:32:12;8.10;93.90
46488;DHT22;32202;48.780;9.204;2022-11-20T17:34:38;8.00;94.10
46488;DHT22;32202;48.780;9.204;2022-11-20T17:37:03;8.00;94.10
46488;DHT22;32202;48.780;9.204;2022-11-20T17:39:29;8.00;93.90
46488;DHT22;32202;48.780;9.204;2022-11-20T17:41:54;8.00;94.40
46488;DHT22;32202;48.780;9.204;2022-11-20T17:44:38;8.00;94.30
46488;DHT22;32202;48.780;9.204;2022-11-20T17:47:06;8.00;93.90